sensor_id;sensor_type;location;lat;lon;timestamp;P1;durP1;ratioP1;P2;durP2;ratioP2
14858;SDS011;7521;51.700;6.874;2023-04-03T00:01:08;5.33;;;2.60;;
14858;SDS011;7521;51.700;6.874;2023-04-03T00:04:13;4.88;;;2.55;;
14858;SDS011;7521;51.700;6.874;2023-04-03T00:07:18;4.53;;;2.50;;
14858;SDS011;7521;51.700;6.874;2023-04-03T00:10:23;8.85;;;3.22;;
14858;SDS011;7521;51.700;6.874;2023-04-03T00:13:28;7.13;;;2.80;;
14858;SDS011;7521;51.700;6.874;2023-04-03T00:16:34;5.30;;;2.40;;
14858;SDS011;7521;51.700;6.874;2023-04-03T00:19:39;5.13;;;2.37;;
14858;SDS011;7521;51.700;6.874;2023-04-03T00:22:45;6.47;;;2.30;;
14858;SDS011;7521;51.700;6.874;2023-04-03T00:25:50;6.40;;;2.60;;
14858;SDS011;7521;51.700;6.874;2023-04-03T00:28:56;7.47;;;2.60;;
14858;SDS011;7521;51.700;6.874;2023-04-03T00:32:01;5.35;;;2.33;;
14858;SDS011;7521;51.700;6.874;2023-04-03T00:35:06;5.75;;;2.58;;
14858;SDS011;7521;51.700;6.874;2023-04-03T00:38:11;5.07;;;2.20;;
14858;SDS011;7521;51.700;6.874;2023-04-03T00:41:16;4.43;;;2.15;;
14858;SDS011;7521;51.700;6.874;2023-04-03T00:47:32;4.23;;;1.90;;
14858;SDS011;7521;51.700;6.874;2023-04-03T00:50:38;2.70;;;1.95;;
14858;SDS011;7521;51.700;6.874;2023-04-03T00:53:49;4.33;;;1.90;;
14858;SDS011;7521;51.700;6.874;2023-04-03T00:56:55;6.13;;;1.90;;
14858;SDS011;7521;51.700;6.874;2023-04-03T01:00:06;4.70;;;1.80;;
14858;SDS011;7521;51.700;6.874;2023-04-03T01:03:13;8.00;;;1.70;;
14858;SDS011;7521;51.700;6.874;2023-04-03T01:06:27;2.97;;;2.00;;
14858;SDS011;7521;51.700;6.874;2023-04-03T01:09:33;3.13;;;1.53;;
14858;SDS011;7521;51.700;6.874;2023-04-03T01:12:39;3.53;;;1.90;;
14858;SDS011;7521;51.700;6.874;2023-04-03T01:15:45;4.67;;;1.77;;
14858;SDS011;7521;51.700;6.874;2023-04-03T01:18:50;3.10;;;1.40;;
14858;SDS011;7521;51.700;6.874;2023-04-03T01:22:15;6.18;;;1.55;;
14858;SDS011;7521;51.700;6.874;2023-04-03T01:25:23;3.93;;;1.83;;
14858;SDS011;7521;51.700;6.874;2023-04-03T01:28:29;5.50;;;1.40;;
14858;SDS011;7521;51.700;6.874;2023-04-03T01:34:40;3.88;;;1.25;;
14858;SDS011;7521;51.700;6.874;2023-04-03T01:37:45;4.47;;;1.23;;
14858;SDS011;7521;51.700;6.874;2023-04-03T01:40:51;4.97;;;1.80;;
14858;SDS011;7521;51.700;6.874;2023-04-03T01:43:56;4.83;;;1.63;;
14858;SDS011;7521;51.700;6.874;2023-04-03T01:47:01;3.65;;;1.33;;
14858;SDS011;7521;51.700;6.874;2023-04-03T01:50:06;6.33;;;1.80;;
14858;SDS011;7521;51.700;6.874;2023-04-03T01:53:12;6.07;;;1.53;;
14858;SDS011;7521;51.700;6.874;2023-04-03T01:56:18;6.97;;;1.50;;
14858;SDS011;7521;51.700;6.874;2023-04-03T01:59:23;4.40;;;1.48;;
14858;SDS011;7521;51.700;6.874;2023-04-03T02:02:28;3.78;;;0.98;;
14858;SDS011;7521;51.700;6.874;2023-04-03T02:05:33;6.07;;;1.38;;
14858;SDS011;7521;51.700;6.874;2023-04-03T02:08:38;4.97;;;1.50;;
14858;SDS011;7521;51.700;6.874;2023-04-03T02:11:44;5.43;;;1.33;;
14858;SDS011;7521;51.700;6.874;2023-04-03T02:14:49;3.58;;;1.52;;
14858;SDS011;7521;51.700;6.874;2023-04-03T02:17:54;6.10;;;1.33;;
14858;SDS011;7521;51.700;6.874;2023-04-03T02:20:59;4.97;;;1.47;;
14858;SDS011;7521;51.700;6.874;2023-04-03T02:24:05;4.70;;;1.50;;
14858;SDS011;7521;51.700;6.874;2023-04-03T02:27:10;3.33;;;1.40;;
14858;SDS011;7521;51.700;6.874;2023-04-03T02:30:15;4.88;;;1.70;;
14858;SDS011;7521;51.700;6.874;2023-04-03T02:33:20;2.80;;;1.27;;
14858;SDS011;7521;51.700;6.874;2023-04-03T02:36:25;4.47;;;1.50;;
14858;SDS011;7521;51.700;6.874;2023-04-03T02:39:31;9.43;;;2.03;;
14858;SDS011;7521;51.700;6.874;2023-04-03T02:42:36;3.60;;;1.50;;
14858;SDS011;7521;51.700;6.874;2023-04-03T02:45:41;2.95;;;1.30;;
14858;SDS011;7521;51.700;6.874;2023-04-03T02:48:46;4.10;;;1.40;;
14858;SDS011;7521;51.700;6.874;2023-04-03T02:51:51;4.40;;;1.48;;
14858;SDS011;7521;51.700;6.874;2023-04-03T02:54:57;5.47;;;1.90;;
14858;SDS011;7521;51.700;6.874;2023-04-03T02:58:02;4.53;;;1.67;;
14858;SDS011;7521;51.700;6.874;2023-04-03T03:01:08;4.47;;;1.87;;
14858;SDS011;7521;51.700;6.874;2023-04-03T03:04:13;4.27;;;1.40;;
14858;SDS011;7521;51.700;6.874;2023-04-03T03:07:18;4.68;;;1.77;;
14858;SDS011;7521;51.700;6.874;2023-04-03T03:10:24;6.03;;;1.20;;
14858;SDS011;7521;51.700;6.874;2023-04-03T03:13:29;5.32;;;1.77;;
14858;SDS011;7521;51.700;6.874;2023-04-03T03:16:35;3.20;;;1.33;;
14858;SDS011;7521;51.700;6.874;2023-04-03T03:19:40;5.28;;;1.73;;
14858;SDS011;7521;51.700;6.874;2023-04-03T03:22:45;3.63;;;1.30;;
14858;SDS011;7521;51.700;6.874;2023-04-03T03:25:54;6.05;;;1.40;;
14858;SDS011;7521;51.700;6.874;2023-04-03T03:28:59;4.83;;;1.50;;
14858;SDS011;7521;51.700;6.874;2023-04-03T03:32:04;4.78;;;1.45;;
14858;SDS011;7521;51.700;6.874;2023-04-03T03:35:09;3.83;;;1.52;;
14858;SDS011;7521;51.700;6.874;2023-04-03T03:38:15;6.63;;;1.77;;
14858;SDS011;7521;51.700;6.874;2023-04-03T03:41:20;3.03;;;1.50;;
14858;SDS011;7521;51.700;6.874;2023-04-03T03:44:25;3.57;;;1.50;;
14858;SDS011;7521;51.700;6.874;2023-04-03T03:47:30;8.43;;;2.20;;
14858;SDS011;7521;51.700;6.874;2023-04-03T03:50:36;5.85;;;1.60;;
14858;SDS011;7521;51.700;6.874;2023-04-03T03:53:41;2.85;;;1.23;;
14858;SDS011;7521;51.700;6.874;2023-04-03T03:56:46;6.18;;;2.00;;
14858;SDS011;7521;51.700;6.874;2023-04-03T03:59:51;6.78;;;1.80;;
14858;SDS011;7521;51.700;6.874;2023-04-03T04:02:57;4.47;;;1.30;;
14858;SDS011;7521;51.700;6.874;2023-04-03T04:06:02;2.55;;;1.20;;
14858;SDS011;7521;51.700;6.874;2023-04-03T04:09:08;5.67;;;1.53;;
14858;SDS011;7521;51.700;6.874;2023-04-03T04:12:13;6.57;;;1.53;;
14858;SDS011;7521;51.700;6.874;2023-04-03T04:15:19;6.67;;;1.90;;
14858;SDS011;7521;51.700;6.874;2023-04-03T04:18:26;3.03;;;1.60;;
14858;SDS011;7521;51.700;6.874;2023-04-03T04:21:31;3.58;;;1.40;;
14858;SDS011;7521;51.700;6.874;2023-04-03T04:24:36;5.37;;;1.43;;
14858;SDS011;7521;51.700;6.874;2023-04-03T04:27:42;4.20;;;1.60;;
14858;SDS011;7521;51.700;6.874;2023-04-03T04:30:47;4.63;;;1.43;;
14858;SDS011;7521;51.700;6.874;2023-04-03T04:33:52;4.30;;;1.30;;
14858;SDS011;7521;51.700;6.874;2023-04-03T04:36:57;4.57;;;1.30;;
14858;SDS011;7521;51.700;6.874;2023-04-03T04:40:03;6.85;;;2.33;;
14858;SDS011;7521;51.700;6.874;2023-04-03T04:43:08;6.20;;;2.00;;
14858;SDS011;7521;51.700;6.874;2023-04-03T04:46:13;7.40;;;1.80;;
14858;SDS011;7521;51.700;6.874;2023-04-03T04:49:18;3.63;;;1.35;;
14858;SDS011;7521;51.700;6.874;2023-04-03T04:52:23;4.35;;;1.90;;
14858;SDS011;7521;51.700;6.874;2023-04-03T04:55:29;3.43;;;1.60;;
14858;SDS011;7521;51.700;6.874;2023-04-03T04:58:34;5.57;;;1.70;;
14858;SDS011;7521;51.700;6.874;2023-04-03T05:01:40;5.43;;;1.60;;
14858;SDS011;7521;51.700;6.874;2023-04-03T05:04:45;3.95;;;1.90;;
14858;SDS011;7521;51.700;6.874;2023-04-03T05:07:50;5.28;;;1.70;;
14858;SDS011;7521;51.700;6.874;2023-04-03T05:10:55;5.22;;;1.65;;
14858;SDS011;7521;51.700;6.874;2023-04-03T05:14:00;4.95;;;1.50;;
14858;SDS011;7521;51.700;6.874;2023-04-03T05:17:06;8.68;;;1.83;;
14858;SDS011;7521;51.700;6.874;2023-04-03T05:20:11;4.50;;;1.80;;
14858;SDS011;7521;51.700;6.874;2023-04-03T05:23:16;5.67;;;1.77;;
14858;SDS011;7521;51.700;6.874;2023-04-03T05:26:22;6.87;;;1.70;;
14858;SDS011;7521;51.700;6.874;2023-04-03T05:29:27;6.33;;;1.60;;
14858;SDS011;7521;51.700;6.874;2023-04-03T05:32:32;6.45;;;1.90;;
14858;SDS011;7521;51.700;6.874;2023-04-03T05:35:37;4.15;;;1.58;;
14858;SDS011;7521;51.700;6.874;2023-04-03T05:38:46;8.60;;;2.00;;
14858;SDS011;7521;51.700;6.874;2023-04-03T05:41:51;7.60;;;2.20;;
14858;SDS011;7521;51.700;6.874;2023-04-03T05:44:56;7.93;;;2.15;;
14858;SDS011;7521;51.700;6.874;2023-04-03T05:48:02;6.77;;;1.87;;
14858;SDS011;7521;51.700;6.874;2023-04-03T05:51:09;7.70;;;2.27;;
14858;SDS011;7521;51.700;6.874;2023-04-03T05:54:25;5.67;;;2.33;;
14858;SDS011;7521;51.700;6.874;2023-04-03T05:57:30;9.20;;;2.30;;
14858;SDS011;7521;51.700;6.874;2023-04-03T06:00:35;10.57;;;2.47;;
14858;SDS011;7521;51.700;6.874;2023-04-03T06:03:41;4.93;;;2.10;;
14858;SDS011;7521;51.700;6.874;2023-04-03T06:06:47;7.55;;;2.10;;
14858;SDS011;7521;51.700;6.874;2023-04-03T06:09:52;3.50;;;1.43;;
14858;SDS011;7521;51.700;6.874;2023-04-03T06:12:58;6.23;;;1.70;;
14858;SDS011;7521;51.700;6.874;2023-04-03T06:16:03;5.37;;;1.80;;
14858;SDS011;7521;51.700;6.874;2023-04-03T06:19:09;8.90;;;2.40;;
14858;SDS011;7521;51.700;6.874;2023-04-03T06:22:14;4.63;;;1.70;;
14858;SDS011;7521;51.700;6.874;2023-04-03T06:25:20;8.13;;;1.80;;
14858;SDS011;7521;51.700;6.874;2023-04-03T06:28:26;5.53;;;1.80;;
14858;SDS011;7521;51.700;6.874;2023-04-03T06:31:31;5.90;;;1.93;;
14858;SDS011;7521;51.700;6.874;2023-04-03T06:34:36;5.30;;;2.03;;
14858;SDS011;7521;51.700;6.874;2023-04-03T06:37:42;5.93;;;1.60;;
14858;SDS011;7521;51.700;6.874;2023-04-03T06:40:47;4.57;;;1.80;;
14858;SDS011;7521;51.700;6.874;2023-04-03T06:43:52;8.37;;;1.60;;
14858;SDS011;7521;51.700;6.874;2023-04-03T06:46:57;4.22;;;1.42;;
14858;SDS011;7521;51.700;6.874;2023-04-03T06:50:02;3.80;;;1.17;;
14858;SDS011;7521;51.700;6.874;2023-04-03T06:53:08;7.30;;;2.00;;
14858;SDS011;7521;51.700;6.874;2023-04-03T06:56:13;7.57;;;1.57;;
14858;SDS011;7521;51.700;6.874;2023-04-03T06:59:18;4.53;;;1.43;;
14858;SDS011;7521;51.700;6.874;2023-04-03T07:02:24;5.10;;;1.60;;
14858;SDS011;7521;51.700;6.874;2023-04-03T07:05:29;7.13;;;1.90;;
14858;SDS011;7521;51.700;6.874;2023-04-03T07:08:35;4.53;;;1.50;;
14858;SDS011;7521;51.700;6.874;2023-04-03T07:11:42;5.03;;;1.93;;
14858;SDS011;7521;51.700;6.874;2023-04-03T07:14:47;6.80;;;2.03;;
14858;SDS011;7521;51.700;6.874;2023-04-03T07:17:52;5.60;;;1.60;;
14858;SDS011;7521;51.700;6.874;2023-04-03T07:20:57;5.67;;;1.80;;
14858;SDS011;7521;51.700;6.874;2023-04-03T07:24:02;3.47;;;1.43;;
14858;SDS011;7521;51.700;6.874;2023-04-03T07:27:08;4.90;;;1.50;;
14858;SDS011;7521;51.700;6.874;2023-04-03T07:30:13;6.60;;;1.60;;
14858;SDS011;7521;51.700;6.874;2023-04-03T07:33:19;3.27;;;1.60;;
14858;SDS011;7521;51.700;6.874;2023-04-03T07:36:25;10.70;;;1.93;;
14858;SDS011;7521;51.700;6.874;2023-04-03T07:39:31;6.07;;;1.73;;
14858;SDS011;7521;51.700;6.874;2023-04-03T07:42:36;6.97;;;1.77;;
14858;SDS011;7521;51.700;6.874;2023-04-03T07:45:41;4.03;;;1.30;;
14858;SDS011;7521;51.700;6.874;2023-04-03T07:48:48;5.37;;;1.50;;
14858;SDS011;7521;51.700;6.874;2023-04-03T07:51:53;5.67;;;1.30;;
14858;SDS011;7521;51.700;6.874;2023-04-03T07:54:59;5.07;;;1.53;;
14858;SDS011;7521;51.700;6.874;2023-04-03T07:58:04;3.20;;;1.60;;
14858;SDS011;7521;51.700;6.874;2023-04-03T08:01:09;4.15;;;1.50;;
14858;SDS011;7521;51.700;6.874;2023-04-03T08:04:15;4.07;;;1.40;;
14858;SDS011;7521;51.700;6.874;2023-04-03T08:07:20;7.50;;;1.97;;
14858;SDS011;7521;51.700;6.874;2023-04-03T08:10:25;2.67;;;1.10;;
14858;SDS011;7521;51.700;6.874;2023-04-03T08:13:31;5.33;;;1.17;;
14858;SDS011;7521;51.700;6.874;2023-04-03T08:16:36;5.20;;;1.20;;
14858;SDS011;7521;51.700;6.874;2023-04-03T08:19:41;5.10;;;1.20;;
14858;SDS011;7521;51.700;6.874;2023-04-03T08:22:46;2.77;;;1.23;;
14858;SDS011;7521;51.700;6.874;2023-04-03T08:25:51;2.13;;;1.10;;
14858;SDS011;7521;51.700;6.874;2023-04-03T08:28:57;3.90;;;1.02;;
14858;SDS011;7521;51.700;6.874;2023-04-03T08:32:02;2.40;;;1.17;;
14858;SDS011;7521;51.700;6.874;2023-04-03T08:35:07;4.70;;;1.52;;
14858;SDS011;7521;51.700;6.874;2023-04-03T08:38:12;4.57;;;1.20;;
14858;SDS011;7521;51.700;6.874;2023-04-03T08:41:34;5.33;;;1.40;;
14858;SDS011;7521;51.700;6.874;2023-04-03T08:47:51;4.23;;;1.00;;
14858;SDS011;7521;51.700;6.874;2023-04-03T08:50:58;3.87;;;0.97;;
14858;SDS011;7521;51.700;6.874;2023-04-03T08:54:04;3.73;;;1.10;;
14858;SDS011;7521;51.700;6.874;2023-04-03T08:57:12;4.07;;;1.10;;
14858;SDS011;7521;51.700;6.874;2023-04-03T09:00:19;3.27;;;0.90;;
14858;SDS011;7521;51.700;6.874;2023-04-03T09:03:25;3.07;;;1.20;;
14858;SDS011;7521;51.700;6.874;2023-04-03T09:06:31;5.87;;;1.60;;
14858;SDS011;7521;51.700;6.874;2023-04-03T09:09:43;3.17;;;1.07;;
14858;SDS011;7521;51.700;6.874;2023-04-03T09:13:33;4.73;;;1.10;;
14858;SDS011;7521;51.700;6.874;2023-04-03T09:19:39;3.17;;;1.20;;
14858;SDS011;7521;51.700;6.874;2023-04-03T09:22:47;3.30;;;1.33;;
14858;SDS011;7521;51.700;6.874;2023-04-03T09:25:54;4.60;;;1.33;;
14858;SDS011;7521;51.700;6.874;2023-04-03T09:29:02;3.90;;;1.20;;
14858;SDS011;7521;51.700;6.874;2023-04-03T09:32:18;3.17;;;1.10;;
14858;SDS011;7521;51.700;6.874;2023-04-03T09:35:25;4.17;;;1.13;;
14858;SDS011;7521;51.700;6.874;2023-04-03T09:38:30;4.20;;;1.13;;
14858;SDS011;7521;51.700;6.874;2023-04-03T09:41:36;2.77;;;0.80;;
14858;SDS011;7521;51.700;6.874;2023-04-03T09:44:41;2.37;;;0.80;;
14858;SDS011;7521;51.700;6.874;2023-04-03T09:47:47;1.33;;;0.83;;
14858;SDS011;7521;51.700;6.874;2023-04-03T09:50:59;4.32;;;1.10;;
14858;SDS011;7521;51.700;6.874;2023-04-03T09:54:24;3.70;;;1.10;;
14858;SDS011;7521;51.700;6.874;2023-04-03T09:57:32;2.23;;;0.80;;
14858;SDS011;7521;51.700;6.874;2023-04-03T10:00:37;3.77;;;1.07;;
14858;SDS011;7521;51.700;6.874;2023-04-03T10:03:43;2.70;;;1.20;;
14858;SDS011;7521;51.700;6.874;2023-04-03T10:06:52;3.67;;;0.90;;
14858;SDS011;7521;51.700;6.874;2023-04-03T10:09:58;3.60;;;1.10;;
14858;SDS011;7521;51.700;6.874;2023-04-03T10:13:05;3.20;;;0.90;;
14858;SDS011;7521;51.700;6.874;2023-04-03T10:16:12;2.97;;;0.97;;
14858;SDS011;7521;51.700;6.874;2023-04-03T10:22:40;1.20;;;0.88;;
14858;SDS011;7521;51.700;6.874;2023-04-03T10:26:02;3.50;;;1.10;;
14858;SDS011;7521;51.700;6.874;2023-04-03T10:32:55;2.37;;;0.90;;
14858;SDS011;7521;51.700;6.874;2023-04-03T10:39:33;5.50;;;0.73;;
14858;SDS011;7521;51.700;6.874;2023-04-03T10:42:43;2.57;;;0.90;;
14858;SDS011;7521;51.700;6.874;2023-04-03T10:52:28;3.63;;;0.88;;
14858;SDS011;7521;51.700;6.874;2023-04-03T10:55:36;4.37;;;0.93;;
14858;SDS011;7521;51.700;6.874;2023-04-03T10:58:48;2.23;;;0.90;;
14858;SDS011;7521;51.700;6.874;2023-04-03T11:01:56;8.03;;;1.20;;
14858;SDS011;7521;51.700;6.874;2023-04-03T11:05:07;4.00;;;1.00;;
14858;SDS011;7521;51.700;6.874;2023-04-03T11:11:39;3.07;;;0.80;;
14858;SDS011;7521;51.700;6.874;2023-04-03T11:14:46;3.60;;;1.00;;
14858;SDS011;7521;51.700;6.874;2023-04-03T11:17:58;2.63;;;0.90;;
14858;SDS011;7521;51.700;6.874;2023-04-03T11:21:27;2.80;;;1.27;;
14858;SDS011;7521;51.700;6.874;2023-04-03T11:24:34;2.10;;;0.73;;
14858;SDS011;7521;51.700;6.874;2023-04-03T11:27:49;4.73;;;1.30;;
14858;SDS011;7521;51.700;6.874;2023-04-03T11:31:03;3.33;;;1.00;;
14858;SDS011;7521;51.700;6.874;2023-04-03T11:34:15;3.00;;;1.20;;
14858;SDS011;7521;51.700;6.874;2023-04-03T11:37:26;3.13;;;1.10;;
14858;SDS011;7521;51.700;6.874;2023-04-03T11:40:34;2.17;;;1.10;;
14858;SDS011;7521;51.700;6.874;2023-04-03T11:43:41;2.23;;;0.90;;
14858;SDS011;7521;51.700;6.874;2023-04-03T11:46:51;2.73;;;0.97;;
14858;SDS011;7521;51.700;6.874;2023-04-03T11:49:58;2.70;;;1.20;;
14858;SDS011;7521;51.700;6.874;2023-04-03T11:59:36;2.57;;;0.80;;
14858;SDS011;7521;51.700;6.874;2023-04-03T12:02:41;4.20;;;1.03;;
14858;SDS011;7521;51.700;6.874;2023-04-03T12:05:47;2.67;;;1.10;;
14858;SDS011;7521;51.700;6.874;2023-04-03T12:08:52;2.50;;;0.77;;
14858;SDS011;7521;51.700;6.874;2023-04-03T12:11:59;2.00;;;0.93;;
14858;SDS011;7521;51.700;6.874;2023-04-03T12:15:12;2.17;;;1.13;;
14858;SDS011;7521;51.700;6.874;2023-04-03T12:22:05;3.17;;;1.00;;
14858;SDS011;7521;51.700;6.874;2023-04-03T12:25:10;3.63;;;1.23;;
14858;SDS011;7521;51.700;6.874;2023-04-03T12:28:28;3.53;;;1.10;;
14858;SDS011;7521;51.700;6.874;2023-04-03T12:31:38;3.83;;;1.25;;
14858;SDS011;7521;51.700;6.874;2023-04-03T12:44:47;3.30;;;1.37;;
14858;SDS011;7521;51.700;6.874;2023-04-03T12:47:55;3.33;;;1.23;;
14858;SDS011;7521;51.700;6.874;2023-04-03T12:51:00;4.07;;;1.20;;
14858;SDS011;7521;51.700;6.874;2023-04-03T12:54:16;1.83;;;0.77;;
14858;SDS011;7521;51.700;6.874;2023-04-03T12:57:24;2.50;;;1.03;;
14858;SDS011;7521;51.700;6.874;2023-04-03T13:00:33;3.30;;;1.50;;
14858;SDS011;7521;51.700;6.874;2023-04-03T13:03:39;3.23;;;1.03;;
14858;SDS011;7521;51.700;6.874;2023-04-03T13:06:45;4.00;;;1.23;;
14858;SDS011;7521;51.700;6.874;2023-04-03T13:13:13;4.70;;;1.10;;
14858;SDS011;7521;51.700;6.874;2023-04-03T13:16:19;2.43;;;1.03;;
14858;SDS011;7521;51.700;6.874;2023-04-03T13:19:26;1.40;;;0.73;;
14858;SDS011;7521;51.700;6.874;2023-04-03T13:22:33;4.27;;;1.23;;
14858;SDS011;7521;51.700;6.874;2023-04-03T13:25:43;1.63;;;0.80;;
14858;SDS011;7521;51.700;6.874;2023-04-03T13:28:49;3.50;;;1.37;;
14858;SDS011;7521;51.700;6.874;2023-04-03T13:31:55;2.83;;;1.00;;
14858;SDS011;7521;51.700;6.874;2023-04-03T13:35:01;4.60;;;1.53;;
14858;SDS011;7521;51.700;6.874;2023-04-03T13:41:25;2.80;;;1.10;;
14858;SDS011;7521;51.700;6.874;2023-04-03T13:47:40;2.50;;;1.17;;
14858;SDS011;7521;51.700;6.874;2023-04-03T13:50:50;3.67;;;1.10;;
14858;SDS011;7521;51.700;6.874;2023-04-03T13:53:59;2.93;;;1.17;;
14858;SDS011;7521;51.700;6.874;2023-04-03T13:57:15;7.83;;;1.20;;
14858;SDS011;7521;51.700;6.874;2023-04-03T14:00:22;3.30;;;1.00;;
14858;SDS011;7521;51.700;6.874;2023-04-03T14:03:37;4.83;;;1.40;;
14858;SDS011;7521;51.700;6.874;2023-04-03T14:06:42;4.40;;;1.10;;
14858;SDS011;7521;51.700;6.874;2023-04-03T14:09:48;3.27;;;1.07;;
14858;SDS011;7521;51.700;6.874;2023-04-03T14:12:53;6.70;;;1.30;;
14858;SDS011;7521;51.700;6.874;2023-04-03T14:16:00;3.67;;;0.90;;
14858;SDS011;7521;51.700;6.874;2023-04-03T14:19:05;2.90;;;1.00;;
14858;SDS011;7521;51.700;6.874;2023-04-03T14:22:14;3.97;;;1.17;;
14858;SDS011;7521;51.700;6.874;2023-04-03T14:25:20;4.40;;;0.80;;
14858;SDS011;7521;51.700;6.874;2023-04-03T14:28:25;3.00;;;0.93;;
14858;SDS011;7521;51.700;6.874;2023-04-03T14:31:30;2.90;;;1.20;;
14858;SDS011;7521;51.700;6.874;2023-04-03T14:34:35;3.28;;;1.52;;
14858;SDS011;7521;51.700;6.874;2023-04-03T14:37:40;2.60;;;1.58;;
14858;SDS011;7521;51.700;6.874;2023-04-03T14:40:46;2.80;;;1.23;;
14858;SDS011;7521;51.700;6.874;2023-04-03T14:43:51;6.35;;;1.80;;
14858;SDS011;7521;51.700;6.874;2023-04-03T14:46:56;2.13;;;0.97;;
14858;SDS011;7521;51.700;6.874;2023-04-03T14:50:03;3.80;;;1.63;;
14858;SDS011;7521;51.700;6.874;2023-04-03T14:53:09;3.70;;;1.10;;
14858;SDS011;7521;51.700;6.874;2023-04-03T14:56:18;4.00;;;1.60;;
14858;SDS011;7521;51.700;6.874;2023-04-03T14:59:23;5.23;;;1.63;;
14858;SDS011;7521;51.700;6.874;2023-04-03T15:02:31;3.53;;;1.20;;
14858;SDS011;7521;51.700;6.874;2023-04-03T15:05:37;3.93;;;1.63;;
14858;SDS011;7521;51.700;6.874;2023-04-03T15:08:42;6.03;;;1.20;;
14858;SDS011;7521;51.700;6.874;2023-04-03T15:11:49;2.47;;;1.00;;
14858;SDS011;7521;51.700;6.874;2023-04-03T15:14:54;4.07;;;1.20;;
14858;SDS011;7521;51.700;6.874;2023-04-03T15:17:59;4.47;;;1.30;;
14858;SDS011;7521;51.700;6.874;2023-04-03T15:21:04;6.97;;;1.10;;
14858;SDS011;7521;51.700;6.874;2023-04-03T15:24:10;5.17;;;1.70;;
14858;SDS011;7521;51.700;6.874;2023-04-03T15:27:16;4.80;;;1.40;;
14858;SDS011;7521;51.700;6.874;2023-04-03T15:30:21;4.00;;;1.30;;
14858;SDS011;7521;51.700;6.874;2023-04-03T15:33:26;3.47;;;1.30;;
14858;SDS011;7521;51.700;6.874;2023-04-03T15:36:31;3.57;;;1.33;;
14858;SDS011;7521;51.700;6.874;2023-04-03T15:39:36;3.88;;;1.33;;
14858;SDS011;7521;51.700;6.874;2023-04-03T15:42:42;4.63;;;1.38;;
14858;SDS011;7521;51.700;6.874;2023-04-03T15:45:47;4.07;;;1.20;;
14858;SDS011;7521;51.700;6.874;2023-04-03T15:48:52;4.37;;;1.00;;
14858;SDS011;7521;51.700;6.874;2023-04-03T15:51:57;3.20;;;1.10;;
14858;SDS011;7521;51.700;6.874;2023-04-03T15:55:03;3.65;;;1.25;;
14858;SDS011;7521;51.700;6.874;2023-04-03T15:58:11;3.03;;;0.97;;
14858;SDS011;7521;51.700;6.874;2023-04-03T16:01:16;5.13;;;1.10;;
14858;SDS011;7521;51.700;6.874;2023-04-03T16:04:22;4.00;;;1.30;;
14858;SDS011;7521;51.700;6.874;2023-04-03T16:07:27;2.37;;;1.20;;
14858;SDS011;7521;51.700;6.874;2023-04-03T16:10:32;2.67;;;1.05;;
14858;SDS011;7521;51.700;6.874;2023-04-03T16:13:38;2.77;;;1.40;;
14858;SDS011;7521;51.700;6.874;2023-04-03T16:16:43;4.28;;;0.90;;
14858;SDS011;7521;51.700;6.874;2023-04-03T16:19:48;1.73;;;1.00;;
14858;SDS011;7521;51.700;6.874;2023-04-03T16:22:53;3.80;;;1.20;;
14858;SDS011;7521;51.700;6.874;2023-04-03T16:26:01;2.93;;;1.40;;
14858;SDS011;7521;51.700;6.874;2023-04-03T16:29:06;2.17;;;1.03;;
14858;SDS011;7521;51.700;6.874;2023-04-03T16:32:11;4.00;;;1.10;;
14858;SDS011;7521;51.700;6.874;2023-04-03T16:35:16;2.97;;;1.20;;
14858;SDS011;7521;51.700;6.874;2023-04-03T16:38:22;5.07;;;1.33;;
14858;SDS011;7521;51.700;6.874;2023-04-03T16:41:27;5.97;;;1.50;;
14858;SDS011;7521;51.700;6.874;2023-04-03T16:44:32;5.05;;;1.05;;
14858;SDS011;7521;51.700;6.874;2023-04-03T16:47:37;4.35;;;1.15;;
14858;SDS011;7521;51.700;6.874;2023-04-03T16:50:45;5.15;;;1.83;;
14858;SDS011;7521;51.700;6.874;2023-04-03T16:53:52;1.93;;;1.30;;
14858;SDS011;7521;51.700;6.874;2023-04-03T16:56:57;15.70;;;4.85;;
14858;SDS011;7521;51.700;6.874;2023-04-03T17:00:03;14.13;;;5.18;;
14858;SDS011;7521;51.700;6.874;2023-04-03T17:03:08;6.53;;;2.33;;
14858;SDS011;7521;51.700;6.874;2023-04-03T17:06:18;4.93;;;1.87;;
14858;SDS011;7521;51.700;6.874;2023-04-03T17:09:24;4.50;;;1.60;;
14858;SDS011;7521;51.700;6.874;2023-04-03T17:12:29;3.95;;;1.20;;
14858;SDS011;7521;51.700;6.874;2023-04-03T17:15:34;3.10;;;1.15;;
14858;SDS011;7521;51.700;6.874;2023-04-03T17:18:40;3.37;;;1.00;;
14858;SDS011;7521;51.700;6.874;2023-04-03T17:21:46;5.67;;;1.00;;
14858;SDS011;7521;51.700;6.874;2023-04-03T17:24:51;6.20;;;1.17;;
14858;SDS011;7521;51.700;6.874;2023-04-03T17:27:56;2.67;;;1.30;;
14858;SDS011;7521;51.700;6.874;2023-04-03T17:31:01;2.17;;;1.00;;
14858;SDS011;7521;51.700;6.874;2023-04-03T17:34:07;5.83;;;1.57;;
14858;SDS011;7521;51.700;6.874;2023-04-03T17:37:13;4.87;;;1.63;;
14858;SDS011;7521;51.700;6.874;2023-04-03T17:40:21;4.27;;;1.20;;
14858;SDS011;7521;51.700;6.874;2023-04-03T17:43:26;4.83;;;1.53;;
14858;SDS011;7521;51.700;6.874;2023-04-03T17:46:31;3.27;;;1.17;;
14858;SDS011;7521;51.700;6.874;2023-04-03T17:49:36;7.57;;;1.37;;
14858;SDS011;7521;51.700;6.874;2023-04-03T17:52:42;2.60;;;1.13;;
14858;SDS011;7521;51.700;6.874;2023-04-03T17:55:47;3.37;;;0.97;;
14858;SDS011;7521;51.700;6.874;2023-04-03T17:58:55;5.50;;;1.25;;
14858;SDS011;7521;51.700;6.874;2023-04-03T18:02:01;3.67;;;1.00;;
14858;SDS011;7521;51.700;6.874;2023-04-03T18:05:07;5.33;;;1.20;;
14858;SDS011;7521;51.700;6.874;2023-04-03T18:08:14;6.83;;;1.43;;
14858;SDS011;7521;51.700;6.874;2023-04-03T18:11:19;2.37;;;1.27;;
14858;SDS011;7521;51.700;6.874;2023-04-03T18:14:26;3.50;;;1.10;;
14858;SDS011;7521;51.700;6.874;2023-04-03T18:17:34;4.13;;;0.80;;
14858;SDS011;7521;51.700;6.874;2023-04-03T18:20:40;4.90;;;0.90;;
14858;SDS011;7521;51.700;6.874;2023-04-03T18:23:46;3.83;;;1.40;;
14858;SDS011;7521;51.700;6.874;2023-04-03T18:26:53;3.70;;;1.37;;
14858;SDS011;7521;51.700;6.874;2023-04-03T18:30:04;4.47;;;1.20;;
14858;SDS011;7521;51.700;6.874;2023-04-03T18:33:10;5.93;;;1.50;;
14858;SDS011;7521;51.700;6.874;2023-04-03T18:36:18;5.83;;;1.27;;
14858;SDS011;7521;51.700;6.874;2023-04-03T18:39:23;4.75;;;1.42;;
14858;SDS011;7521;51.700;6.874;2023-04-03T18:42:28;3.75;;;1.50;;
14858;SDS011;7521;51.700;6.874;2023-04-03T18:45:33;4.50;;;1.43;;
14858;SDS011;7521;51.700;6.874;2023-04-03T18:48:39;5.27;;;1.07;;
14858;SDS011;7521;51.700;6.874;2023-04-03T18:51:47;6.83;;;1.57;;
14858;SDS011;7521;51.700;6.874;2023-04-03T18:54:53;3.87;;;1.20;;
14858;SDS011;7521;51.700;6.874;2023-04-03T18:57:58;4.07;;;1.27;;
14858;SDS011;7521;51.700;6.874;2023-04-03T19:01:04;4.90;;;1.00;;
14858;SDS011;7521;51.700;6.874;2023-04-03T19:04:10;4.23;;;1.00;;
14858;SDS011;7521;51.700;6.874;2023-04-03T19:07:15;4.70;;;1.43;;
14858;SDS011;7521;51.700;6.874;2023-04-03T19:10:20;3.17;;;1.33;;
14858;SDS011;7521;51.700;6.874;2023-04-03T19:13:26;6.00;;;1.20;;
14858;SDS011;7521;51.700;6.874;2023-04-03T19:16:32;4.20;;;1.47;;
14858;SDS011;7521;51.700;6.874;2023-04-03T19:19:37;2.97;;;1.40;;
14858;SDS011;7521;51.700;6.874;2023-04-03T19:22:42;3.17;;;1.00;;
14858;SDS011;7521;51.700;6.874;2023-04-03T19:25:58;3.60;;;1.10;;
14858;SDS011;7521;51.700;6.874;2023-04-03T19:29:03;2.57;;;0.90;;
14858;SDS011;7521;51.700;6.874;2023-04-03T19:32:09;1.83;;;0.83;;
14858;SDS011;7521;51.700;6.874;2023-04-03T19:35:14;3.60;;;1.17;;
14858;SDS011;7521;51.700;6.874;2023-04-03T19:38:19;2.93;;;1.20;;
14858;SDS011;7521;51.700;6.874;2023-04-03T19:41:26;3.53;;;1.35;;
14858;SDS011;7521;51.700;6.874;2023-04-03T19:44:32;4.37;;;1.77;;
14858;SDS011;7521;51.700;6.874;2023-04-03T19:47:38;5.60;;;2.03;;
14858;SDS011;7521;51.700;6.874;2023-04-03T19:50:43;5.20;;;1.52;;
14858;SDS011;7521;51.700;6.874;2023-04-03T19:53:48;4.63;;;1.37;;
14858;SDS011;7521;51.700;6.874;2023-04-03T19:56:53;4.30;;;1.60;;
14858;SDS011;7521;51.700;6.874;2023-04-03T19:59:59;3.25;;;1.27;;
14858;SDS011;7521;51.700;6.874;2023-04-03T20:03:04;5.70;;;1.93;;